sensor_id;sensor_type;location;lat;lon;timestamp;P1;durP1;ratioP1;P2;durP2;ratioP2
11677;SDS011;5895;41.950;24.372;2024-01-30T00:02:13;6.25;;;5.63;;
11677;SDS011;5895;41.950;24.372;2024-01-30T00:04:40;6.10;;;5.50;;
11677;SDS011;5895;41.950;24.372;2024-01-30T00:07:09;6.10;;;5.50;;
11677;SDS011;5895;41.950;24.372;2024-01-30T00:09:36;5.93;;;5.40;;
11677;SDS011;5895;41.950;24.372;2024-01-30T00:12:05;5.90;;;5.30;;
11677;SDS011;5895;41.950;24.372;2024-01-30T00:14:33;5.50;;;5.00;;
11677;SDS011;5895;41.950;24.372;2024-01-30T00:17:00;5.97;;;5.37;;
11677;SDS011;5895;41.950;24.372;2024-01-30T00:19:27;5.97;;;5.37;;
11677;SDS011;5895;41.950;24.372;2024-01-30T00:21:54;5.87;;;5.27;;
11677;SDS011;5895;41.950;24.372;2024-01-30T00:24:22;5.90;;;5.30;;
11677;SDS011;5895;41.950;24.372;2024-01-30T00:26:49;5.97;;;5.43;;
11677;SDS011;5895;41.950;24.372;2024-01-30T00:29:17;5.70;;;5.20;;
11677;SDS011;5895;41.950;24.372;2024-01-30T00:31:45;5.77;;;5.20;;
11677;SDS011;5895;41.950;24.372;2024-01-30T00:34:12;6.90;;;6.20;;
11677;SDS011;5895;41.950;24.372;2024-01-30T00:36:39;10.07;;;8.37;;
11677;SDS011;5895;41.950;24.372;2024-01-30T00:39:06;12.40;;;9.93;;
11677;SDS011;5895;41.950;24.372;2024-01-30T00:41:38;7.47;;;6.40;;
11677;SDS011;5895;41.950;24.372;2024-01-30T00:44:05;8.50;;;7.37;;
11677;SDS011;5895;41.950;24.372;2024-01-30T00:46:32;10.33;;;9.10;;
11677;SDS011;5895;41.950;24.372;2024-01-30T00:48:59;9.50;;;8.50;;
11677;SDS011;5895;41.950;24.372;2024-01-30T00:51:26;8.93;;;8.03;;
11677;SDS011;5895;41.950;24.372;2024-01-30T00:53:55;6.17;;;5.57;;
11677;SDS011;5895;41.950;24.372;2024-01-30T00:56:22;6.80;;;6.20;;
11677;SDS011;5895;41.950;24.372;2024-01-30T00:58:50;7.33;;;6.60;;
11677;SDS011;5895;41.950;24.372;2024-01-30T01:01:17;5.70;;;5.10;;
11677;SDS011;5895;41.950;24.372;2024-01-30T01:03:44;5.82;;;5.22;;
11677;SDS011;5895;41.950;24.372;2024-01-30T01:06:12;6.33;;;5.70;;
11677;SDS011;5895;41.950;24.372;2024-01-30T01:08:39;5.83;;;5.33;;
11677;SDS011;5895;41.950;24.372;2024-01-30T01:11:06;5.55;;;5.05;;
11677;SDS011;5895;41.950;24.372;2024-01-30T01:13:33;6.03;;;4.95;;
11677;SDS011;5895;41.950;24.372;2024-01-30T01:16:02;5.77;;;5.23;;
11677;SDS011;5895;41.950;24.372;2024-01-30T01:18:30;5.30;;;4.80;;
11677;SDS011;5895;41.950;24.372;2024-01-30T01:20:57;5.73;;;5.23;;
11677;SDS011;5895;41.950;24.372;2024-01-30T01:23:24;6.03;;;5.43;;
11677;SDS011;5895;41.950;24.372;2024-01-30T01:25:51;5.93;;;5.40;;
11677;SDS011;5895;41.950;24.372;2024-01-30T01:28:18;5.70;;;5.10;;
11677;SDS011;5895;41.950;24.372;2024-01-30T01:30:45;6.17;;;5.57;;
11677;SDS011;5895;41.950;24.372;2024-01-30T01:33:13;6.38;;;5.78;;
11677;SDS011;5895;41.950;24.372;2024-01-30T01:35:40;5.80;;;5.30;;
11677;SDS011;5895;41.950;24.372;2024-01-30T01:38:07;6.17;;;5.57;;
11677;SDS011;5895;41.950;24.372;2024-01-30T01:40:34;6.13;;;5.53;;
11677;SDS011;5895;41.950;24.372;2024-01-30T01:43:04;6.35;;;5.75;;
11677;SDS011;5895;41.950;24.372;2024-01-30T01:45:33;6.20;;;5.60;;
11677;SDS011;5895;41.950;24.372;2024-01-30T01:48:00;6.50;;;5.90;;
11677;SDS011;5895;41.950;24.372;2024-01-30T01:50:29;6.18;;;5.57;;
11677;SDS011;5895;41.950;24.372;2024-01-30T01:52:56;6.57;;;5.95;;
11677;SDS011;5895;41.950;24.372;2024-01-30T01:55:23;6.95;;;5.95;;
11677;SDS011;5895;41.950;24.372;2024-01-30T01:57:52;7.13;;;6.43;;
11677;SDS011;5895;41.950;24.372;2024-01-30T02:00:20;7.50;;;6.80;;
11677;SDS011;5895;41.950;24.372;2024-01-30T02:02:47;6.70;;;6.07;;
11677;SDS011;5895;41.950;24.372;2024-01-30T02:05:14;7.45;;;6.75;;
11677;SDS011;5895;41.950;24.372;2024-01-30T02:07:43;8.23;;;7.20;;
11677;SDS011;5895;41.950;24.372;2024-01-30T02:10:10;7.70;;;6.95;;
11677;SDS011;5895;41.950;24.372;2024-01-30T02:12:37;7.50;;;6.30;;
11677;SDS011;5895;41.950;24.372;2024-01-30T02:15:05;7.03;;;6.32;;
11677;SDS011;5895;41.950;24.372;2024-01-30T02:17:33;5.72;;;5.22;;
11677;SDS011;5895;41.950;24.372;2024-01-30T02:20:00;6.53;;;5.93;;
11677;SDS011;5895;41.950;24.372;2024-01-30T02:22:30;7.40;;;6.70;;
11677;SDS011;5895;41.950;24.372;2024-01-30T02:25:00;6.40;;;5.80;;
11677;SDS011;5895;41.950;24.372;2024-01-30T02:27:27;6.40;;;5.80;;
11677;SDS011;5895;41.950;24.372;2024-01-30T02:29:54;6.70;;;6.10;;
11677;SDS011;5895;41.950;24.372;2024-01-30T02:32:21;6.20;;;5.60;;
11677;SDS011;5895;41.950;24.372;2024-01-30T02:34:48;6.93;;;6.23;;
11677;SDS011;5895;41.950;24.372;2024-01-30T02:37:16;6.32;;;5.72;;
11677;SDS011;5895;41.950;24.372;2024-01-30T02:39:45;6.80;;;6.13;;
11677;SDS011;5895;41.950;24.372;2024-01-30T02:42:12;6.60;;;6.00;;
11677;SDS011;5895;41.950;24.372;2024-01-30T02:44:39;7.47;;;6.77;;
11677;SDS011;5895;41.950;24.372;2024-01-30T02:47:06;7.10;;;6.13;;
11677;SDS011;5895;41.950;24.372;2024-01-30T02:49:33;7.13;;;6.43;;
11677;SDS011;5895;41.950;24.372;2024-01-30T02:52:00;6.77;;;6.17;;
11677;SDS011;5895;41.950;24.372;2024-01-30T02:54:27;6.87;;;6.27;;
11677;SDS011;5895;41.950;24.372;2024-01-30T02:56:57;7.10;;;6.40;;
11677;SDS011;5895;41.950;24.372;2024-01-30T02:59:24;6.87;;;6.13;;
11677;SDS011;5895;41.950;24.372;2024-01-30T03:01:51;7.60;;;6.90;;
11677;SDS011;5895;41.950;24.372;2024-01-30T03:04:18;7.10;;;6.50;;
11677;SDS011;5895;41.950;24.372;2024-01-30T03:06:45;7.27;;;6.57;;
11677;SDS011;5895;41.950;24.372;2024-01-30T03:09:13;7.50;;;6.67;;
11677;SDS011;5895;41.950;24.372;2024-01-30T03:11:41;7.33;;;6.63;;
11677;SDS011;5895;41.950;24.372;2024-01-30T03:14:10;7.57;;;6.67;;
11677;SDS011;5895;41.950;24.372;2024-01-30T03:16:37;7.47;;;6.77;;
11677;SDS011;5895;41.950;24.372;2024-01-30T03:19:05;8.70;;;6.93;;
11677;SDS011;5895;41.950;24.372;2024-01-30T03:21:34;9.30;;;8.23;;
11677;SDS011;5895;41.950;24.372;2024-01-30T03:24:01;8.20;;;7.40;;
11677;SDS011;5895;41.950;24.372;2024-01-30T03:26:28;9.57;;;8.57;;
11677;SDS011;5895;41.950;24.372;2024-01-30T03:28:55;10.13;;;9.13;;
11677;SDS011;5895;41.950;24.372;2024-01-30T03:31:23;8.73;;;7.93;;
11677;SDS011;5895;41.950;24.372;2024-01-30T03:33:50;8.77;;;7.97;;
11677;SDS011;5895;41.950;24.372;2024-01-30T03:36:18;8.53;;;7.73;;
11677;SDS011;5895;41.950;24.372;2024-01-30T03:38:45;9.80;;;8.90;;
11677;SDS011;5895;41.950;24.372;2024-01-30T03:41:12;10.13;;;8.40;;
11677;SDS011;5895;41.950;24.372;2024-01-30T03:43:39;9.80;;;8.83;;
11677;SDS011;5895;41.950;24.372;2024-01-30T03:46:07;8.68;;;7.88;;
11677;SDS011;5895;41.950;24.372;2024-01-30T03:48:35;10.37;;;9.37;;
11677;SDS011;5895;41.950;24.372;2024-01-30T03:51:03;12.23;;;10.03;;
11677;SDS011;5895;41.950;24.372;2024-01-30T03:53:30;12.97;;;11.13;;
11677;SDS011;5895;41.950;24.372;2024-01-30T03:55:58;14.50;;;13.07;;
11677;SDS011;5895;41.950;24.372;2024-01-30T03:58:25;11.63;;;10.43;;
11677;SDS011;5895;41.950;24.372;2024-01-30T04:00:52;12.20;;;10.48;;
11677;SDS011;5895;41.950;24.372;2024-01-30T04:03:19;15.20;;;13.38;;
11677;SDS011;5895;41.950;24.372;2024-01-30T04:05:47;11.10;;;10.00;;
11677;SDS011;5895;41.950;24.372;2024-01-30T04:08:14;12.57;;;11.27;;
11677;SDS011;5895;41.950;24.372;2024-01-30T04:10:41;11.67;;;10.47;;
11677;SDS011;5895;41.950;24.372;2024-01-30T04:13:08;12.27;;;11.07;;
11677;SDS011;5895;41.950;24.372;2024-01-30T04:15:35;11.13;;;10.03;;
11677;SDS011;5895;41.950;24.372;2024-01-30T04:18:03;11.13;;;10.02;;
11677;SDS011;5895;41.950;24.372;2024-01-30T04:20:30;10.13;;;9.20;;
11677;SDS011;5895;41.950;24.372;2024-01-30T04:22:58;11.20;;;10.13;;
11677;SDS011;5895;41.950;24.372;2024-01-30T04:25:25;9.90;;;8.90;;
11677;SDS011;5895;41.950;24.372;2024-01-30T04:27:52;11.00;;;9.63;;
11677;SDS011;5895;41.950;24.372;2024-01-30T04:30:19;10.57;;;9.48;;
11677;SDS011;5895;41.950;24.372;2024-01-30T04:32:46;11.07;;;9.90;;
11677;SDS011;5895;41.950;24.372;2024-01-30T04:35:14;10.60;;;9.50;;
11677;SDS011;5895;41.950;24.372;2024-01-30T04:37:41;10.57;;;9.43;;
11677;SDS011;5895;41.950;24.372;2024-01-30T04:40:10;16.13;;;12.17;;
11677;SDS011;5895;41.950;24.372;2024-01-30T04:42:37;13.67;;;11.03;;
11677;SDS011;5895;41.950;24.372;2024-01-30T04:45:05;10.30;;;9.20;;
11677;SDS011;5895;41.950;24.372;2024-01-30T04:47:33;13.10;;;10.93;;
11677;SDS011;5895;41.950;24.372;2024-01-30T04:50:00;10.93;;;9.83;;
11677;SDS011;5895;41.950;24.372;2024-01-30T04:52:30;27.07;;;22.27;;
11677;SDS011;5895;41.950;24.372;2024-01-30T04:54:57;18.33;;;15.97;;
11677;SDS011;5895;41.950;24.372;2024-01-30T04:57:25;13.20;;;11.90;;
11677;SDS011;5895;41.950;24.372;2024-01-30T04:59:53;10.07;;;9.07;;
11677;SDS011;5895;41.950;24.372;2024-01-30T05:02:20;11.00;;;9.90;;
11677;SDS011;5895;41.950;24.372;2024-01-30T05:04:47;10.83;;;9.43;;
11677;SDS011;5895;41.950;24.372;2024-01-30T05:07:14;10.67;;;9.57;;
11677;SDS011;5895;41.950;24.372;2024-01-30T05:09:41;10.23;;;9.23;;
11677;SDS011;5895;41.950;24.372;2024-01-30T05:12:08;11.67;;;9.77;;
11677;SDS011;5895;41.950;24.372;2024-01-30T05:14:36;14.00;;;11.67;;
11677;SDS011;5895;41.950;24.372;2024-01-30T05:17:03;47.80;;;35.13;;
11677;SDS011;5895;41.950;24.372;2024-01-30T05:19:30;28.37;;;22.30;;
11677;SDS011;5895;41.950;24.372;2024-01-30T05:21:58;36.83;;;28.13;;
11677;SDS011;5895;41.950;24.372;2024-01-30T05:24:24;35.13;;;26.53;;
11677;SDS011;5895;41.950;24.372;2024-01-30T05:26:51;16.20;;;14.50;;
11677;SDS011;5895;41.950;24.372;2024-01-30T05:29:18;15.30;;;13.70;;
11677;SDS011;5895;41.950;24.372;2024-01-30T05:31:47;18.33;;;16.37;;
11677;SDS011;5895;41.950;24.372;2024-01-30T05:34:14;16.10;;;14.40;;
11677;SDS011;5895;41.950;24.372;2024-01-30T05:36:41;15.77;;;14.07;;
11677;SDS011;5895;41.950;24.372;2024-01-30T05:39:08;16.63;;;13.17;;
11677;SDS011;5895;41.950;24.372;2024-01-30T05:41:35;14.00;;;12.50;;
11677;SDS011;5895;41.950;24.372;2024-01-30T05:44:02;12.60;;;11.30;;
11677;SDS011;5895;41.950;24.372;2024-01-30T05:46:30;12.90;;;11.47;;
11677;SDS011;5895;41.950;24.372;2024-01-30T05:48:58;13.93;;;12.37;;
11677;SDS011;5895;41.950;24.372;2024-01-30T05:51:25;11.83;;;10.63;;
11677;SDS011;5895;41.950;24.372;2024-01-30T05:53:53;12.60;;;11.23;;
11677;SDS011;5895;41.950;24.372;2024-01-30T05:56:20;13.80;;;12.30;;
11677;SDS011;5895;41.950;24.372;2024-01-30T05:58:47;16.30;;;13.77;;
11677;SDS011;5895;41.950;24.372;2024-01-30T06:01:15;16.77;;;13.90;;
11677;SDS011;5895;41.950;24.372;2024-01-30T06:03:43;12.20;;;10.90;;
11677;SDS011;5895;41.950;24.372;2024-01-30T06:06:11;13.30;;;10.63;;
11677;SDS011;5895;41.950;24.372;2024-01-30T06:08:38;11.73;;;9.53;;
11677;SDS011;5895;41.950;24.372;2024-01-30T06:11:05;11.93;;;9.07;;
11677;SDS011;5895;41.950;24.372;2024-01-30T06:13:36;11.30;;;10.10;;
11677;SDS011;5895;41.950;24.372;2024-01-30T06:16:03;19.00;;;16.30;;
11677;SDS011;5895;41.950;24.372;2024-01-30T06:18:31;11.90;;;10.33;;
11677;SDS011;5895;41.950;24.372;2024-01-30T06:20:58;13.50;;;11.03;;
11677;SDS011;5895;41.950;24.372;2024-01-30T06:23:26;13.73;;;11.00;;
11677;SDS011;5895;41.950;24.372;2024-01-30T06:25:53;12.93;;;10.70;;
11677;SDS011;5895;41.950;24.372;2024-01-30T06:28:20;11.07;;;10.00;;
11677;SDS011;5895;41.950;24.372;2024-01-30T06:30:47;10.33;;;9.20;;
11677;SDS011;5895;41.950;24.372;2024-01-30T06:33:14;13.17;;;10.27;;
11677;SDS011;5895;41.950;24.372;2024-01-30T06:35:41;13.63;;;10.90;;
11677;SDS011;5895;41.950;24.372;2024-01-30T06:38:10;11.73;;;10.17;;
11677;SDS011;5895;41.950;24.372;2024-01-30T06:40:40;10.63;;;9.52;;
11677;SDS011;5895;41.950;24.372;2024-01-30T06:43:07;11.83;;;10.60;;
11677;SDS011;5895;41.950;24.372;2024-01-30T06:45:34;12.57;;;10.87;;
11677;SDS011;5895;41.950;24.372;2024-01-30T06:48:01;13.53;;;11.17;;
11677;SDS011;5895;41.950;24.372;2024-01-30T06:50:29;12.57;;;10.40;;
11677;SDS011;5895;41.950;24.372;2024-01-30T06:52:56;11.17;;;9.97;;
11677;SDS011;5895;41.950;24.372;2024-01-30T06:55:23;9.93;;;8.68;;
11677;SDS011;5895;41.950;24.372;2024-01-30T06:57:51;9.33;;;8.27;;
11677;SDS011;5895;41.950;24.372;2024-01-30T07:00:19;7.70;;;6.90;;
11677;SDS011;5895;41.950;24.372;2024-01-30T07:02:47;9.83;;;8.50;;
11677;SDS011;5895;41.950;24.372;2024-01-30T07:05:15;10.10;;;8.23;;
11677;SDS011;5895;41.950;24.372;2024-01-30T07:07:42;8.60;;;7.70;;
11677;SDS011;5895;41.950;24.372;2024-01-30T07:10:09;8.77;;;7.88;;
11677;SDS011;5895;41.950;24.372;2024-01-30T07:12:37;8.80;;;7.73;;
11677;SDS011;5895;41.950;24.372;2024-01-30T07:15:05;9.60;;;8.33;;
11677;SDS011;5895;41.950;24.372;2024-01-30T07:17:34;11.73;;;10.53;;
11677;SDS011;5895;41.950;24.372;2024-01-30T07:20:02;13.85;;;12.40;;
11677;SDS011;5895;41.950;24.372;2024-01-30T07:22:31;10.53;;;9.47;;
11677;SDS011;5895;41.950;24.372;2024-01-30T07:24:59;13.67;;;10.73;;
11677;SDS011;5895;41.950;24.372;2024-01-30T07:27:26;8.87;;;7.97;;
11677;SDS011;5895;41.950;24.372;2024-01-30T07:29:53;7.60;;;6.90;;
11677;SDS011;5895;41.950;24.372;2024-01-30T07:32:22;8.87;;;6.97;;
11677;SDS011;5895;41.950;24.372;2024-01-30T07:34:49;6.80;;;6.10;;
11677;SDS011;5895;41.950;24.372;2024-01-30T07:37:16;5.87;;;5.30;;
11677;SDS011;5895;41.950;24.372;2024-01-30T07:39:44;5.90;;;4.70;;
11677;SDS011;5895;41.950;24.372;2024-01-30T07:42:11;6.90;;;6.30;;
11677;SDS011;5895;41.950;24.372;2024-01-30T07:44:38;6.30;;;5.70;;
11677;SDS011;5895;41.950;24.372;2024-01-30T07:47:05;6.93;;;5.50;;
11677;SDS011;5895;41.950;24.372;2024-01-30T07:49:34;6.97;;;6.27;;
11677;SDS011;5895;41.950;24.372;2024-01-30T07:52:01;6.83;;;5.90;;
11677;SDS011;5895;41.950;24.372;2024-01-30T07:54:31;7.73;;;6.93;;
11677;SDS011;5895;41.950;24.372;2024-01-30T07:56:59;7.27;;;5.97;;
11677;SDS011;5895;41.950;24.372;2024-01-30T07:59:27;6.43;;;5.83;;
11677;SDS011;5895;41.950;24.372;2024-01-30T08:01:54;7.57;;;6.77;;
11677;SDS011;5895;41.950;24.372;2024-01-30T08:04:21;12.50;;;11.13;;
11677;SDS011;5895;41.950;24.372;2024-01-30T08:06:49;11.27;;;9.90;;
11677;SDS011;5895;41.950;24.372;2024-01-30T08:09:16;9.37;;;8.10;;
11677;SDS011;5895;41.950;24.372;2024-01-30T08:11:43;9.20;;;8.30;;
11677;SDS011;5895;41.950;24.372;2024-01-30T08:14:10;7.97;;;7.20;;
11677;SDS011;5895;41.950;24.372;2024-01-30T08:16:39;8.60;;;7.30;;
11677;SDS011;5895;41.950;24.372;2024-01-30T08:19:06;7.43;;;6.73;;
11677;SDS011;5895;41.950;24.372;2024-01-30T08:21:33;5.30;;;4.77;;
11677;SDS011;5895;41.950;24.372;2024-01-30T08:24:03;4.70;;;4.30;;
11677;SDS011;5895;41.950;24.372;2024-01-30T08:26:31;5.35;;;4.85;;
11677;SDS011;5895;41.950;24.372;2024-01-30T08:28:59;4.60;;;4.20;;
11677;SDS011;5895;41.950;24.372;2024-01-30T08:31:26;4.88;;;4.35;;
11677;SDS011;5895;41.950;24.372;2024-01-30T08:33:53;4.78;;;4.38;;
11677;SDS011;5895;41.950;24.372;2024-01-30T08:36:20;4.67;;;4.23;;
11677;SDS011;5895;41.950;24.372;2024-01-30T08:38:47;4.57;;;4.18;;
11677;SDS011;5895;41.950;24.372;2024-01-30T08:41:15;4.63;;;4.22;;
11677;SDS011;5895;41.950;24.372;2024-01-30T08:43:43;4.97;;;4.07;;
11677;SDS011;5895;41.950;24.372;2024-01-30T08:46:11;4.28;;;3.88;;
11677;SDS011;5895;41.950;24.372;2024-01-30T08:48:38;5.53;;;4.80;;
11677;SDS011;5895;41.950;24.372;2024-01-30T08:51:05;11.30;;;8.57;;
11677;SDS011;5895;41.950;24.372;2024-01-30T08:53:34;6.30;;;5.70;;
11677;SDS011;5895;41.950;24.372;2024-01-30T08:56:02;4.70;;;4.30;;
11677;SDS011;5895;41.950;24.372;2024-01-30T08:58:31;4.78;;;4.28;;
11677;SDS011;5895;41.950;24.372;2024-01-30T09:00:58;5.13;;;4.53;;
11677;SDS011;5895;41.950;24.372;2024-01-30T09:03:25;4.00;;;3.70;;
11677;SDS011;5895;41.950;24.372;2024-01-30T09:05:52;4.38;;;4.00;;
11677;SDS011;5895;41.950;24.372;2024-01-30T09:08:19;5.70;;;4.97;;
11677;SDS011;5895;41.950;24.372;2024-01-30T09:10:47;5.82;;;4.90;;
11677;SDS011;5895;41.950;24.372;2024-01-30T09:13:15;4.95;;;4.45;;
11677;SDS011;5895;41.950;24.372;2024-01-30T09:15:43;5.40;;;4.90;;
11677;SDS011;5895;41.950;24.372;2024-01-30T09:18:10;5.10;;;4.60;;
11677;SDS011;5895;41.950;24.372;2024-01-30T09:20:37;5.80;;;5.30;;
11677;SDS011;5895;41.950;24.372;2024-01-30T09:23:04;5.15;;;4.65;;
11677;SDS011;5895;41.950;24.372;2024-01-30T09:25:31;5.15;;;4.70;;
11677;SDS011;5895;41.950;24.372;2024-01-30T09:27:59;5.32;;;4.82;;
11677;SDS011;5895;41.950;24.372;2024-01-30T09:30:26;5.32;;;4.82;;
11677;SDS011;5895;41.950;24.372;2024-01-30T09:32:55;5.10;;;4.55;;
11677;SDS011;5895;41.950;24.372;2024-01-30T09:35:22;5.00;;;4.50;;
11677;SDS011;5895;41.950;24.372;2024-01-30T09:37:49;5.95;;;5.45;;
11677;SDS011;5895;41.950;24.372;2024-01-30T09:40:16;9.10;;;7.97;;
11677;SDS011;5895;41.950;24.372;2024-01-30T09:42:45;8.80;;;7.80;;
11677;SDS011;5895;41.950;24.372;2024-01-30T09:45:14;6.05;;;5.50;;
11677;SDS011;5895;41.950;24.372;2024-01-30T09:47:41;6.47;;;5.88;;
11677;SDS011;5895;41.950;24.372;2024-01-30T09:50:11;7.18;;;6.47;;
11677;SDS011;5895;41.950;24.372;2024-01-30T09:52:40;6.22;;;5.57;;
11677;SDS011;5895;41.950;24.372;2024-01-30T09:55:09;5.93;;;5.43;;
11677;SDS011;5895;41.950;24.372;2024-01-30T09:57:36;7.15;;;6.45;;
11677;SDS011;5895;41.950;24.372;2024-01-30T10:00:05;7.18;;;6.47;;
11677;SDS011;5895;41.950;24.372;2024-01-30T10:02:34;6.45;;;5.85;;
11677;SDS011;5895;41.950;24.372;2024-01-30T10:05:01;6.50;;;5.72;;
11677;SDS011;5895;41.950;24.372;2024-01-30T10:07:30;5.72;;;5.03;;
11677;SDS011;5895;41.950;24.372;2024-01-30T10:09:58;5.20;;;4.70;;
11677;SDS011;5895;41.950;24.372;2024-01-30T10:12:27;5.93;;;5.32;;
11677;SDS011;5895;41.950;24.372;2024-01-30T10:14:56;6.65;;;6.05;;
11677;SDS011;5895;41.950;24.372;2024-01-30T10:17:24;5.93;;;5.43;;
11677;SDS011;5895;41.950;24.372;2024-01-30T10:19:52;6.07;;;5.47;;
11677;SDS011;5895;41.950;24.372;2024-01-30T10:22:19;6.37;;;5.77;;
11677;SDS011;5895;41.950;24.372;2024-01-30T10:24:47;6.18;;;5.57;;
11677;SDS011;5895;41.950;24.372;2024-01-30T10:27:15;6.10;;;5.50;;
11677;SDS011;5895;41.950;24.372;2024-01-30T10:29:42;8.05;;;7.25;;
11677;SDS011;5895;41.950;24.372;2024-01-30T10:32:09;6.97;;;6.28;;
11677;SDS011;5895;41.950;24.372;2024-01-30T10:34:36;8.30;;;7.50;;
11677;SDS011;5895;41.950;24.372;2024-01-30T10:37:07;6.95;;;6.28;;
11677;SDS011;5895;41.950;24.372;2024-01-30T10:39:38;6.68;;;6.00;;
11677;SDS011;5895;41.950;24.372;2024-01-30T10:42:11;7.95;;;6.75;;
11677;SDS011;5895;41.950;24.372;2024-01-30T10:44:43;7.05;;;6.35;;
11677;SDS011;5895;41.950;24.372;2024-01-30T10:47:16;6.13;;;5.53;;
11677;SDS011;5895;41.950;24.372;2024-01-30T10:49:48;6.93;;;6.22;;
11677;SDS011;5895;41.950;24.372;2024-01-30T10:52:16;6.05;;;5.45;;
11677;SDS011;5895;41.950;24.372;2024-01-30T10:54:45;5.82;;;5.30;;
11677;SDS011;5895;41.950;24.372;2024-01-30T10:57:14;7.10;;;6.40;;
11677;SDS011;5895;41.950;24.372;2024-01-30T10:59:42;6.03;;;5.45;;
11677;SDS011;5895;41.950;24.372;2024-01-30T11:02:12;5.03;;;4.53;;
11677;SDS011;5895;41.950;24.372;2024-01-30T11:04:41;5.00;;;4.57;;
11677;SDS011;5895;41.950;24.372;2024-01-30T11:07:14;5.45;;;5.03;;
11677;SDS011;5895;41.950;24.372;2024-01-30T11:09:48;5.10;;;4.60;;
11677;SDS011;5895;41.950;24.372;2024-01-30T11:12:18;8.07;;;6.30;;
11677;SDS011;5895;41.950;24.372;2024-01-30T11:14:48;6.05;;;5.13;;
11677;SDS011;5895;41.950;24.372;2024-01-30T11:17:15;6.55;;;5.95;;
11677;SDS011;5895;41.950;24.372;2024-01-30T11:19:42;5.88;;;5.28;;
11677;SDS011;5895;41.950;24.372;2024-01-30T11:22:10;8.65;;;7.10;;
11677;SDS011;5895;41.950;24.372;2024-01-30T11:24:39;7.60;;;6.80;;
11677;SDS011;5895;41.950;24.372;2024-01-30T11:27:08;5.70;;;5.15;;
11677;SDS011;5895;41.950;24.372;2024-01-30T11:29:37;6.50;;;5.90;;
11677;SDS011;5895;41.950;24.372;2024-01-30T11:32:05;6.30;;;5.70;;
11677;SDS011;5895;41.950;24.372;2024-01-30T11:34:32;5.75;;;5.25;;
11677;SDS011;5895;41.950;24.372;2024-01-30T11:37:03;5.97;;;5.38;;
11677;SDS011;5895;41.950;24.372;2024-01-30T11:39:35;6.10;;;5.40;;
11677;SDS011;5895;41.950;24.372;2024-01-30T11:42:03;8.55;;;7.35;;
11677;SDS011;5895;41.950;24.372;2024-01-30T11:44:34;6.75;;;5.15;;
11677;SDS011;5895;41.950;24.372;2024-01-30T11:47:02;5.20;;;4.72;;
11677;SDS011;5895;41.950;24.372;2024-01-30T11:49:30;6.10;;;5.50;;
11677;SDS011;5895;41.950;24.372;2024-01-30T11:51:57;6.32;;;5.68;;
11677;SDS011;5895;41.950;24.372;2024-01-30T11:54:24;5.55;;;5.05;;
11677;SDS011;5895;41.950;24.372;2024-01-30T11:56:51;5.32;;;4.70;;
11677;SDS011;5895;41.950;24.372;2024-01-30T11:59:18;5.68;;;5.00;;
11677;SDS011;5895;41.950;24.372;2024-01-30T12:01:46;5.40;;;4.90;;
11677;SDS011;5895;41.950;24.372;2024-01-30T12:04:14;5.05;;;4.55;;
11677;SDS011;5895;41.950;24.372;2024-01-30T12:06:42;5.13;;;4.70;;
11677;SDS011;5895;41.950;24.372;2024-01-30T12:09:09;4.93;;;4.53;;
11677;SDS011;5895;41.950;24.372;2024-01-30T12:11:44;6.38;;;4.90;;
11677;SDS011;5895;41.950;24.372;2024-01-30T12:14:12;5.85;;;5.00;;
11677;SDS011;5895;41.950;24.372;2024-01-30T12:16:39;4.95;;;4.45;;
11677;SDS011;5895;41.950;24.372;2024-01-30T12:19:06;4.57;;;4.00;;
11677;SDS011;5895;41.950;24.372;2024-01-30T12:21:35;4.18;;;3.78;;
11677;SDS011;5895;41.950;24.372;2024-01-30T12:24:03;5.68;;;4.50;;
11677;SDS011;5895;41.950;24.372;2024-01-30T12:26:32;5.88;;;4.00;;
11677;SDS011;5895;41.950;24.372;2024-01-30T12:28:59;5.13;;;4.68;;
11677;SDS011;5895;41.950;24.372;2024-01-30T12:31:31;5.43;;;4.50;;
11677;SDS011;5895;41.950;24.372;2024-01-30T12:33:59;5.10;;;4.63;;
11677;SDS011;5895;41.950;24.372;2024-01-30T12:36:27;5.32;;;4.82;;
11677;SDS011;5895;41.950;24.372;2024-01-30T12:38:58;5.30;;;4.70;;
11677;SDS011;5895;41.950;24.372;2024-01-30T12:41:29;5.88;;;5.35;;
11677;SDS011;5895;41.950;24.372;2024-01-30T12:43:57;6.13;;;5.53;;
11677;SDS011;5895;41.950;24.372;2024-01-30T12:46:25;6.35;;;5.75;;
11677;SDS011;5895;41.950;24.372;2024-01-30T12:48:55;6.28;;;5.68;;
11677;SDS011;5895;41.950;24.372;2024-01-30T12:51:22;5.65;;;5.15;;
11677;SDS011;5895;41.950;24.372;2024-01-30T12:53:49;4.22;;;3.90;;
11677;SDS011;5895;41.950;24.372;2024-01-30T12:56:17;4.32;;;3.92;;
11677;SDS011;5895;41.950;24.372;2024-01-30T12:58:44;4.30;;;3.90;;
11677;SDS011;5895;41.950;24.372;2024-01-30T13:01:11;4.45;;;4.05;;
11677;SDS011;5895;41.950;24.372;2024-01-30T13:03:39;4.10;;;3.70;;
11677;SDS011;5895;41.950;24.372;2024-01-30T13:06:06;5.93;;;5.05;;
11677;SDS011;5895;41.950;24.372;2024-01-30T13:08:33;5.10;;;4.30;;
11677;SDS011;5895;41.950;24.372;2024-01-30T13:11:00;7.03;;;5.55;;
11677;SDS011;5895;41.950;24.372;2024-01-30T13:13:28;3.90;;;3.50;;
11677;SDS011;5895;41.950;24.372;2024-01-30T13:15:55;4.43;;;4.03;;
11677;SDS011;5895;41.950;24.372;2024-01-30T13:18:22;4.25;;;3.65;;
11677;SDS011;5895;41.950;24.372;2024-01-30T13:20:49;4.47;;;4.03;;
11677;SDS011;5895;41.950;24.372;2024-01-30T13:23:17;4.00;;;3.45;;
11677;SDS011;5895;41.950;24.372;2024-01-30T13:25:44;5.00;;;4.50;;
11677;SDS011;5895;41.950;24.372;2024-01-30T13:28:11;4.53;;;4.13;;
11677;SDS011;5895;41.950;24.372;2024-01-30T13:30:39;5.30;;;4.50;;
11677;SDS011;5895;41.950;24.372;2024-01-30T13:33:06;4.50;;;4.03;;
11677;SDS011;5895;41.950;24.372;2024-01-30T13:35:33;4.53;;;3.72;;
11677;SDS011;5895;41.950;24.372;2024-01-30T13:38:00;4.22;;;3.58;;
11677;SDS011;5895;41.950;24.372;2024-01-30T13:40:27;4.80;;;4.18;;
11677;SDS011;5895;41.950;24.372;2024-01-30T13:42:54;4.50;;;3.60;;
11677;SDS011;5895;41.950;24.372;2024-01-30T13:45:21;4.18;;;3.78;;
11677;SDS011;5895;41.950;24.372;2024-01-30T13:47:50;4.57;;;3.95;;
11677;SDS011;5895;41.950;24.372;2024-01-30T13:50:17;7.75;;;3.50;;
11677;SDS011;5895;41.950;24.372;2024-01-30T13:52:44;6.20;;;3.10;;
11677;SDS011;5895;41.950;24.372;2024-01-30T13:55:11;5.32;;;4.15;;
11677;SDS011;5895;41.950;24.372;2024-01-30T13:57:38;6.30;;;4.20;;
11677;SDS011;5895;41.950;24.372;2024-01-30T14:00:06;3.35;;;3.05;;
11677;SDS011;5895;41.950;24.372;2024-01-30T14:02:34;3.90;;;3.50;;
11677;SDS011;5895;41.950;24.372;2024-01-30T14:05:02;4.40;;;4.00;;
11677;SDS011;5895;41.950;24.372;2024-01-30T14:07:31;4.63;;;3.90;;
11677;SDS011;5895;41.950;24.372;2024-01-30T14:09:58;4.40;;;4.00;;
11677;SDS011;5895;41.950;24.372;2024-01-30T14:12:25;3.92;;;3.55;;
11677;SDS011;5895;41.950;24.372;2024-01-30T14:14:52;4.70;;;4.30;;
11677;SDS011;5895;41.950;24.372;2024-01-30T14:17:19;4.47;;;4.07;;
11677;SDS011;5895;41.950;24.372;2024-01-30T14:19:46;4.10;;;3.72;;
11677;SDS011;5895;41.950;24.372;2024-01-30T14:22:15;4.50;;;4.10;;
11677;SDS011;5895;41.950;24.372;2024-01-30T14:24:42;4.15;;;3.70;;
11677;SDS011;5895;41.950;24.372;2024-01-30T14:27:09;5.60;;;4.70;;
11677;SDS011;5895;41.950;24.372;2024-01-30T14:29:37;5.88;;;5.28;;
11677;SDS011;5895;41.950;24.372;2024-01-30T14:32:04;4.10;;;3.80;;
11677;SDS011;5895;41.950;24.372;2024-01-30T14:34:32;4.18;;;3.78;;
11677;SDS011;5895;41.950;24.372;2024-01-30T14:36:59;5.15;;;4.75;;
11677;SDS011;5895;41.950;24.372;2024-01-30T14:39:27;4.15;;;3.75;;
11677;SDS011;5895;41.950;24.372;2024-01-30T14:41:54;5.55;;;4.90;;
11677;SDS011;5895;41.950;24.372;2024-01-30T14:44:21;6.05;;;5.30;;
11677;SDS011;5895;41.950;24.372;2024-01-30T14:46:49;3.88;;;3.55;;